createdAt,value
2023-02-11T00:00:51.499Z,-0.06
2023-02-11T00:03:38.694Z,0.55
2023-02-11T00:06:25.534Z,0.92
2023-02-11T00:09:11.429Z,0.14
2023-02-11T00:11:56.921Z,0.82
2023-02-11T00:14:42.260Z,0.95
2023-02-11T00:17:27.843Z,-0.37
2023-02-11T00:20:13.188Z,-0.41
2023-02-11T00:22:58.889Z,0.86
2023-02-11T00:25:45.521Z,-0.29
2023-02-11T00:28:31.114Z,0.92
2023-02-11T00:31:19.089Z,-0.05
2023-02-11T00:34:04.573Z,-0.06
2023-02-11T00:36:51.961Z,0.92
2023-02-11T00:39:38.121Z,-0.12
2023-02-11T00:42:24.436Z,0.94
2023-02-11T00:45:09.970Z,-0.06
2023-02-11T00:47:55.672Z,0.98
2023-02-11T00:50:40.941Z,0.89
2023-02-11T00:53:26.752Z,0.79
2023-02-11T00:56:12.504Z,0.78
2023-02-11T00:58:58.120Z,-0.43
2023-02-11T01:01:44.137Z,0.89
2023-02-11T01:04:30.064Z,0.77
2023-02-11T01:07:15.380Z,0.96
2023-02-11T01:10:00.939Z,-0.30
2023-02-11T01:12:48.454Z,1.02
2023-02-11T01:15:34.181Z,0.82
2023-02-11T01:18:20.091Z,0.97
2023-02-11T01:21:07.768Z,-0.05
2023-02-11T01:23:53.177Z,0.85
2023-02-11T01:26:39.381Z,0.97
2023-02-11T01:29:24.989Z,-0.29
2023-02-11T01:32:13.950Z,-0.42
2023-02-11T01:34:59.808Z,0.87
2023-02-11T01:37:45.814Z,0.87
2023-02-11T01:40:31.497Z,0.83
2023-02-11T01:43:17.451Z,0.00
2023-02-11T01:46:23.401Z,1.02
2023-02-11T01:49:15.082Z,1.03
2023-02-11T01:52:07.109Z,-0.13
2023-02-11T01:55:14.377Z,0.80
2023-02-11T01:58:05.053Z,0.73
2023-02-11T02:00:51.043Z,0.90
2023-02-11T02:03:40.998Z,1.00
2023-02-11T02:06:34.454Z,0.29
2023-02-11T02:09:28.109Z,0.94
2023-02-11T02:12:13.730Z,-0.36
2023-02-11T02:15:37.055Z,0.92
2023-02-11T02:18:31.257Z,0.92
2023-02-11T02:21:48.331Z,0.85
2023-02-11T02:24:49.203Z,0.87
2023-02-11T02:27:55.838Z,0.84
2023-02-11T02:31:03.463Z,0.80
2023-02-11T02:34:06.662Z,0.76
2023-02-11T02:37:08.232Z,0.75
2023-02-11T02:39:53.827Z,0.71
2023-02-11T02:42:41.355Z,-0.37
2023-02-11T02:45:27.206Z,0.75
2023-02-11T02:48:29.380Z,0.78
2023-02-11T02:51:53.523Z,0.76
2023-02-11T02:55:08.780Z,0.83
2023-02-11T02:58:23.812Z,0.70
2023-02-11T03:01:22.667Z,0.70
2023-02-11T03:04:22.801Z,0.86
2023-02-11T03:07:41.611Z,-0.18
2023-02-11T03:10:34.329Z,0.85
2023-02-11T03:13:24.713Z,0.83
2023-02-11T03:16:15.129Z,0.81
2023-02-11T03:19:06.017Z,0.76
2023-02-11T03:21:53.516Z,0.60
2023-02-11T03:24:41.295Z,0.76
2023-02-11T03:27:36.184Z,0.77
2023-02-11T03:30:28.522Z,0.70
2023-02-11T03:33:52.676Z,0.68
2023-02-11T03:36:38.684Z,0.71
2023-02-11T03:39:30.094Z,0.73
2023-02-11T03:42:16.686Z,0.55
2023-02-11T03:45:09.606Z,0.40
2023-02-11T03:48:01.812Z,0.62
2023-02-11T03:50:50.077Z,0.59
2023-02-11T03:53:38.253Z,-0.65
2023-02-11T03:56:29.521Z,0.45
2023-02-11T03:59:14.865Z,0.54
2023-02-11T04:02:00.595Z,-0.36
2023-02-11T04:04:47.116Z,0.47
2023-02-11T04:07:32.669Z,0.38
2023-02-11T04:10:18.737Z,-0.55
2023-02-11T04:13:04.246Z,0.37
2023-02-11T04:15:49.633Z,0.32
2023-02-11T04:18:34.972Z,0.51
2023-02-11T04:21:20.479Z,0.23
2023-02-11T04:24:05.980Z,0.28
2023-02-11T04:26:51.630Z,-0.66
2023-02-11T04:29:36.929Z,-0.86
2023-02-11T04:32:22.418Z,0.47
2023-02-11T04:35:07.976Z,0.53
2023-02-11T04:37:54.270Z,-0.57
2023-02-11T04:40:40.232Z,0.34
2023-02-11T04:43:25.686Z,0.55
2023-02-11T04:46:11.079Z,0.56
2023-02-11T04:48:57.205Z,0.42
2023-02-11T04:51:46.508Z,0.67
2023-02-11T04:54:33.487Z,-0.54
2023-02-11T04:57:19.118Z,0.47
2023-02-11T05:00:05.996Z,0.75
2023-02-11T05:02:51.534Z,0.75
2023-02-11T05:05:41.364Z,0.61
2023-02-11T05:08:26.664Z,0.69
2023-02-11T05:11:20.823Z,0.62
2023-02-11T05:14:07.238Z,-0.66
2023-02-11T05:16:52.682Z,0.15
2023-02-11T05:19:38.610Z,-0.10
2023-02-11T05:22:24.032Z,0.07
2023-02-11T05:25:09.602Z,-1.13
2023-02-11T05:27:55.094Z,-1.26
2023-02-11T05:30:40.635Z,0.02
2023-02-11T05:33:25.992Z,-0.06
2023-02-11T05:36:13.542Z,-1.16
2023-02-11T05:38:59.020Z,-0.55
2023-02-11T05:41:44.372Z,0.05
2023-02-11T05:44:29.862Z,0.06
2023-02-11T05:47:15.231Z,0.08
2023-02-11T05:50:00.845Z,0.05
2023-02-11T05:52:46.724Z,0.10
2023-02-11T05:55:32.479Z,0.07
2023-02-11T05:58:18.501Z,0.05
2023-02-11T06:01:03.732Z,-1.26
2023-02-11T06:03:51.212Z,-0.02
2023-02-11T06:06:36.876Z,-1.04
2023-02-11T06:09:22.340Z,0.07
2023-02-11T06:12:07.890Z,-0.09
2023-02-11T06:14:53.567Z,-1.28
2023-02-11T06:17:38.866Z,0.15
2023-02-11T06:20:24.281Z,0.17
2023-02-11T06:23:10.243Z,-1.16
2023-02-11T06:25:55.823Z,-0.77
2023-02-11T06:28:42.112Z,0.21
2023-02-11T06:31:28.310Z,0.17
2023-02-11T06:34:14.026Z,0.25
2023-02-11T06:36:59.469Z,0.27
2023-02-11T06:39:45.409Z,0.19
2023-02-11T06:42:30.939Z,0.14
2023-02-11T06:45:16.518Z,-0.46
2023-02-11T06:48:02.081Z,-1.43
2023-02-11T06:50:47.740Z,-0.08
2023-02-11T06:53:37.100Z,-0.32
2023-02-11T06:56:24.478Z,-0.34
2023-02-11T06:59:16.480Z,-0.28
2023-02-11T07:02:03.660Z,-0.27
2023-02-11T07:04:49.542Z,-1.65
2023-02-11T07:07:35.755Z,-0.93
2023-02-11T07:10:21.143Z,-0.36
2023-02-11T07:13:06.667Z,-0.16
2023-02-11T07:15:52.674Z,-0.14
2023-02-11T07:18:38.819Z,-0.29
2023-02-11T07:21:24.699Z,-1.20
2023-02-11T07:24:11.338Z,-0.08
2023-02-11T07:26:57.028Z,-1.14
2023-02-11T07:29:43.520Z,-0.33
2023-02-11T07:32:29.482Z,-0.13
2023-02-11T07:35:15.991Z,-0.11
2023-02-11T07:38:01.556Z,-0.05
2023-02-11T07:40:47.060Z,0.07
2023-02-11T07:43:34.202Z,-0.14
2023-02-11T07:46:23.313Z,0.30
2023-02-11T07:49:09.250Z,0.51
2023-02-11T07:51:55.097Z,-0.39
2023-02-11T07:54:40.796Z,0.66
2023-02-11T07:57:26.020Z,0.61
2023-02-11T08:00:12.203Z,0.61
2023-02-11T08:02:58.204Z,0.72
2023-02-11T08:05:46.539Z,0.61
2023-02-11T08:08:38.452Z,-0.14
2023-02-11T08:11:28.800Z,0.98
2023-02-11T08:14:14.822Z,0.99
2023-02-11T08:17:00.636Z,-0.26
2023-02-11T08:19:46.034Z,0.91
2023-02-11T08:22:33.454Z,1.17
2023-02-11T08:25:20.575Z,0.87
2023-02-11T08:28:06.152Z,0.94
2023-02-11T08:30:51.705Z,1.04
2023-02-11T08:33:38.204Z,-0.51
2023-02-11T08:36:29.538Z,0.89
2023-02-11T08:39:21.062Z,-0.03
2023-02-11T08:42:06.544Z,-0.21
2023-02-11T08:44:51.816Z,1.03
2023-02-11T08:47:42.080Z,1.12
2023-02-11T08:50:28.455Z,-0.06
2023-02-11T08:53:14.200Z,-0.07
2023-02-11T08:55:59.513Z,1.08
2023-02-11T08:58:49.224Z,0.09
2023-02-11T09:01:36.839Z,1.00
2023-02-11T09:04:36.399Z,0.82
2023-02-11T09:07:32.515Z,1.02
2023-02-11T09:10:18.931Z,-0.40
2023-02-11T09:13:05.078Z,0.93
2023-02-11T09:15:50.928Z,1.00
2023-02-11T09:18:37.182Z,0.96
2023-02-11T09:21:25.398Z,-1.95
2023-02-11T09:24:12.142Z,0.90
2023-02-11T09:26:58.095Z,1.15
2023-02-11T09:29:50.058Z,1.41
2023-02-11T09:32:39.519Z,1.56
2023-02-11T09:35:25.405Z,1.11
2023-02-11T09:38:11.503Z,1.89
2023-02-11T09:40:57.082Z,1.80
2023-02-11T09:43:48.239Z,1.90
2023-02-11T09:46:41.821Z,0.95
2023-02-11T09:49:50.527Z,0.97
2023-02-11T09:52:57.516Z,2.14
2023-02-11T09:55:46.717Z,2.05
2023-02-11T09:58:38.624Z,2.15
2023-02-11T10:01:45.404Z,2.01
2023-02-11T10:04:51.194Z,2.27
2023-02-11T10:07:43.529Z,2.37
2023-02-11T10:10:41.873Z,2.50
2023-02-11T10:13:42.646Z,2.64
2023-02-11T10:16:37.647Z,2.75
2023-02-11T10:19:41.231Z,2.84
2023-02-11T10:22:37.806Z,2.79
2023-02-11T10:25:29.786Z,3.03
2023-02-11T10:28:21.247Z,3.07
2023-02-11T10:31:11.852Z,3.08
2023-02-11T10:34:10.291Z,3.13
2023-02-11T10:36:55.966Z,2.99
2023-02-11T10:39:41.718Z,3.10
2023-02-11T10:42:27.955Z,3.09
2023-02-11T10:45:30.544Z,3.20
2023-02-11T10:48:55.129Z,3.29
2023-02-11T10:51:40.907Z,3.36
2023-02-11T10:54:26.612Z,3.29
2023-02-11T10:57:20.072Z,3.29
2023-02-11T11:00:22.891Z,2.57
2023-02-11T11:03:21.202Z,3.44
2023-02-11T11:06:09.992Z,3.46
2023-02-11T11:08:55.995Z,3.33
2023-02-11T11:11:53.630Z,3.48
2023-02-11T11:14:39.307Z,3.48
2023-02-11T11:17:30.528Z,2.11
2023-02-11T11:20:22.811Z,3.54
2023-02-11T11:23:20.247Z,3.31
2023-02-11T11:26:13.089Z,3.63
2023-02-11T11:29:07.641Z,3.50
2023-02-11T11:32:20.537Z,3.78
2023-02-11T11:35:27.317Z,3.75
2023-02-11T11:38:15.021Z,3.62
2023-02-11T11:41:18.424Z,2.63
2023-02-11T11:44:26.939Z,2.77
2023-02-11T11:47:12.581Z,3.92
2023-02-11T11:50:23.107Z,3.64
2023-02-11T11:53:45.945Z,3.96
2023-02-11T11:56:53.817Z,3.11
2023-02-11T11:59:39.766Z,2.57
2023-02-11T12:03:02.705Z,4.09
2023-02-11T12:06:11.185Z,4.16
2023-02-11T12:09:15.246Z,4.22
2023-02-11T12:12:32.147Z,2.97
2023-02-11T12:15:39.468Z,4.18
2023-02-11T12:18:46.188Z,4.13
2023-02-11T12:21:54.189Z,4.09
2023-02-11T12:25:07.803Z,4.01
2023-02-11T12:28:20.116Z,3.92
2023-02-11T12:31:37.413Z,3.87
2023-02-11T12:34:47.722Z,3.84
2023-02-11T12:37:42.680Z,3.82
2023-02-11T12:40:57.402Z,3.62
2023-02-11T12:43:44.576Z,3.72
2023-02-11T12:46:50.271Z,2.87
2023-02-11T12:50:22.951Z,3.95
2023-02-11T12:53:14.649Z,3.99
2023-02-11T12:56:21.537Z,3.83
2023-02-11T12:59:17.156Z,3.49
2023-02-11T13:02:12.566Z,4.00
2023-02-11T13:05:08.398Z,3.98
2023-02-11T13:08:14.913Z,2.69
2023-02-11T13:11:14.414Z,3.92
2023-02-11T13:14:24.554Z,3.73
2023-02-11T13:17:24.357Z,3.82
2023-02-11T13:20:25.648Z,3.87
2023-02-11T13:23:16.972Z,3.90
2023-02-11T13:26:09.835Z,3.84
2023-02-11T13:29:05.420Z,3.77
2023-02-11T13:32:07.460Z,3.57
2023-02-11T13:34:53.206Z,3.93
2023-02-11T13:37:40.009Z,3.88
2023-02-11T13:40:35.980Z,3.87
2023-02-11T13:43:25.301Z,3.68
2023-02-11T13:46:13.675Z,3.81
2023-02-11T13:48:59.594Z,3.80
2023-02-11T13:51:46.743Z,3.82
2023-02-11T13:54:39.213Z,3.64
2023-02-11T13:57:37.417Z,2.52
2023-02-11T14:00:36.524Z,3.78
2023-02-11T14:03:52.552Z,3.14
2023-02-11T14:07:08.114Z,3.75
2023-02-11T14:09:57.348Z,3.48
2023-02-11T14:13:06.606Z,3.64
2023-02-11T14:16:31.549Z,3.58
2023-02-11T14:19:38.780Z,3.25
2023-02-11T14:22:31.723Z,2.24
2023-02-11T14:25:25.460Z,3.46
2023-02-11T14:28:24.331Z,3.51
2023-02-11T14:31:18.432Z,3.35
2023-02-11T14:34:19.017Z,3.46
2023-02-11T14:37:14.229Z,2.38
2023-02-11T14:40:18.637Z,3.33
2023-02-11T14:43:18.721Z,3.26
2023-02-11T14:46:05.491Z,3.41
2023-02-11T14:48:55.214Z,3.40
2023-02-11T14:51:41.388Z,3.38
2023-02-11T14:54:28.932Z,3.35
2023-02-11T14:57:19.632Z,3.14
2023-02-11T15:00:18.170Z,3.31
2023-02-11T15:03:04.177Z,3.28
2023-02-11T15:05:58.976Z,3.22
2023-02-11T15:08:52.707Z,2.21
2023-02-11T15:11:41.192Z,3.27
2023-02-11T15:14:30.506Z,3.24
2023-02-11T15:17:21.195Z,3.18
2023-02-11T15:20:08.036Z,3.16
2023-02-11T15:23:00.481Z,2.90
2023-02-11T15:25:51.568Z,3.21
2023-02-11T15:28:37.075Z,1.91
2023-02-11T15:31:25.441Z,3.09
2023-02-11T15:34:12.161Z,1.83
2023-02-11T15:36:58.301Z,1.83
2023-02-11T15:39:44.133Z,3.15
2023-02-11T15:42:43.865Z,3.13
2023-02-11T15:45:36.360Z,3.07
2023-02-11T15:48:26.771Z,2.91
2023-02-11T15:51:23.280Z,3.00
2023-02-11T15:54:16.778Z,1.95
2023-02-11T15:57:07.452Z,2.96
2023-02-11T15:59:54.876Z,2.74
2023-02-11T16:02:45.596Z,2.91
2023-02-11T16:05:32.929Z,2.44
2023-02-11T16:08:29.940Z,2.85
2023-02-11T16:11:27.001Z,2.71
2023-02-11T16:14:29.648Z,2.90
2023-02-11T16:17:18.746Z,2.88
2023-02-11T16:20:04.867Z,2.87
2023-02-11T16:22:50.832Z,2.61
2023-02-11T16:25:37.434Z,1.98
2023-02-11T16:28:22.881Z,2.78
2023-02-11T16:31:09.996Z,2.60
2023-02-11T16:33:55.497Z,2.53
2023-02-11T16:36:41.227Z,2.61
2023-02-11T16:39:30.853Z,2.40
2023-02-11T16:42:20.472Z,2.63
2023-02-11T16:45:06.936Z,1.64
2023-02-11T16:47:52.474Z,2.58
2023-02-11T16:50:38.210Z,2.66
2023-02-11T16:53:25.326Z,1.37
2023-02-11T16:56:16.896Z,2.68
2023-02-11T16:59:02.761Z,2.64
2023-02-11T17:01:49.769Z,2.49
2023-02-11T17:04:35.765Z,2.36
2023-02-11T17:07:21.823Z,2.26
2023-02-11T17:10:23.987Z,2.56
2023-02-11T17:13:09.407Z,2.46
2023-02-11T17:15:56.105Z,2.42
2023-02-11T17:18:42.766Z,2.47
2023-02-11T17:21:32.498Z,2.33
2023-02-11T17:24:21.956Z,1.14
2023-02-11T17:27:12.147Z,2.49
2023-02-11T17:30:02.254Z,2.51
2023-02-11T17:32:50.957Z,1.22
2023-02-11T17:35:41.518Z,2.40
2023-02-11T17:38:28.892Z,0.95
2023-02-11T17:41:17.131Z,2.37
2023-02-11T17:44:05.873Z,2.55
2023-02-11T17:46:53.528Z,2.56
2023-02-11T17:49:43.090Z,2.55
2023-02-11T17:52:31.862Z,2.41
2023-02-11T17:55:21.505Z,2.55
2023-02-11T17:58:11.651Z,2.08
2023-02-11T18:01:01.584Z,2.49
2023-02-11T18:03:51.083Z,2.54
2023-02-11T18:06:41.582Z,1.28
2023-02-11T18:09:35.083Z,2.58
2023-02-11T18:12:27.335Z,2.37
2023-02-11T18:15:21.406Z,2.56
2023-02-11T18:18:12.345Z,1.22
2023-02-11T18:21:10.332Z,1.38
2023-02-11T18:24:05.982Z,2.55
2023-02-11T18:26:58.421Z,1.43
2023-02-11T18:29:51.947Z,2.44
2023-02-11T18:32:42.468Z,2.47
2023-02-11T18:35:33.146Z,2.26
2023-02-11T18:38:24.412Z,2.44
2023-02-11T18:45:38.592Z,2.48
2023-02-11T18:48:33.617Z,2.44
2023-02-11T18:51:21.541Z,2.09
2023-02-11T18:54:09.888Z,2.44
2023-02-11T18:56:56.043Z,2.40
2023-02-11T18:59:43.573Z,2.44
2023-02-11T19:02:31.081Z,1.12
2023-02-11T19:05:18.944Z,2.26
2023-02-11T19:08:07.715Z,2.26
2023-02-11T19:10:54.100Z,2.42
2023-02-11T19:13:41.348Z,2.45
2023-02-11T19:16:30.378Z,2.41
2023-02-11T19:19:18.544Z,1.10
2023-02-11T19:22:10.254Z,2.43
2023-02-11T19:24:56.630Z,2.38
2023-02-11T19:27:43.922Z,2.48
2023-02-11T19:30:31.058Z,2.28
2023-02-11T19:33:17.555Z,2.28
2023-02-11T19:36:08.471Z,1.09
2023-02-11T19:38:55.231Z,2.22
2023-02-11T19:41:41.969Z,2.37
2023-02-11T19:44:28.543Z,2.41
2023-02-11T19:47:14.811Z,2.22
2023-02-11T19:50:01.044Z,2.40
2023-02-11T19:52:48.719Z,2.40
2023-02-11T19:55:35.169Z,2.28
2023-02-11T19:58:22.048Z,2.31
2023-02-11T20:01:09.960Z,2.32
2023-02-11T20:03:56.778Z,2.07
2023-02-11T20:06:43.129Z,2.23
2023-02-11T20:09:31.288Z,2.37
2023-02-11T20:12:17.006Z,2.23
2023-02-11T20:15:03.019Z,2.24
2023-02-11T20:17:48.926Z,1.07
2023-02-11T20:20:34.281Z,2.37
2023-02-11T20:23:20.759Z,2.37
2023-02-11T20:26:08.112Z,1.95
2023-02-11T20:28:55.633Z,2.34
2023-02-11T20:31:42.025Z,2.00
2023-02-11T20:34:27.668Z,2.09
2023-02-11T20:37:13.237Z,2.01
2023-02-11T20:39:58.877Z,2.16
2023-02-11T20:42:44.411Z,2.10
2023-02-11T20:45:29.809Z,2.10
2023-02-11T20:48:15.417Z,2.23
2023-02-11T20:51:10.783Z,2.25
2023-02-11T20:53:56.974Z,2.08
2023-02-11T20:56:44.990Z,0.89
2023-02-11T20:59:31.994Z,2.14
2023-02-11T21:02:18.279Z,2.17
2023-02-11T21:05:04.009Z,2.24
2023-02-11T21:07:50.827Z,1.98
2023-02-11T21:10:38.184Z,2.05
2023-02-11T21:13:35.021Z,2.27
2023-02-11T21:16:36.117Z,2.26
2023-02-11T21:19:35.323Z,2.18
2023-02-11T21:22:30.993Z,1.96
2023-02-11T21:25:23.476Z,2.22
2023-02-11T21:28:09.733Z,1.10
2023-02-11T21:30:57.353Z,2.19
2023-02-11T21:33:59.409Z,2.12
2023-02-11T21:36:45.840Z,2.12
2023-02-11T21:39:31.110Z,2.13
2023-02-11T21:42:19.774Z,2.10
2023-02-11T21:45:14.231Z,2.09
2023-02-11T21:48:17.200Z,2.09
2023-02-11T21:51:13.028Z,2.11
2023-02-11T21:54:07.251Z,2.10
2023-02-11T21:57:11.777Z,2.08
2023-02-11T22:00:18.056Z,1.08
2023-02-11T22:03:11.076Z,1.93
2023-02-11T22:06:00.687Z,1.96
2023-02-11T22:08:51.780Z,2.14
2023-02-11T22:11:41.538Z,1.97
2023-02-11T22:14:32.370Z,2.16
2023-02-11T22:17:40.357Z,2.15
2023-02-11T22:20:29.247Z,1.92
2023-02-11T22:23:20.691Z,1.88
2023-02-11T22:26:21.052Z,0.76
2023-02-11T22:29:16.889Z,2.04
2023-02-11T22:32:02.749Z,0.97
2023-02-11T22:34:48.448Z,2.07
2023-02-11T22:37:34.181Z,1.13
2023-02-11T22:40:19.994Z,2.14
2023-02-11T22:43:05.448Z,2.13
2023-02-11T22:45:52.221Z,1.99
2023-02-11T22:48:37.502Z,2.00
2023-02-11T22:51:25.444Z,1.92
2023-02-11T22:54:14.956Z,2.10
2023-02-11T22:57:00.389Z,2.18
2023-02-11T22:59:45.889Z,0.87
2023-02-11T23:02:31.687Z,2.06
2023-02-11T23:05:17.480Z,2.23
2023-02-11T23:08:03.707Z,0.90
2023-02-11T23:10:49.471Z,2.11
2023-02-11T23:13:37.687Z,1.65
2023-02-11T23:16:26.306Z,1.47
2023-02-11T23:19:12.511Z,1.81
2023-02-11T23:21:58.343Z,1.93
2023-02-11T23:24:43.725Z,0.87
2023-02-11T23:27:33.388Z,2.27
2023-02-11T23:30:22.832Z,2.27
2023-02-11T23:33:09.234Z,2.27
2023-02-11T23:35:55.534Z,2.27
2023-02-11T23:38:41.564Z,2.00
2023-02-11T23:41:27.505Z,2.28
2023-02-11T23:44:13.276Z,2.05
2023-02-11T23:46:58.964Z,2.24
2023-02-11T23:49:44.573Z,2.26
2023-02-11T23:52:29.777Z,1.13
2023-02-11T23:55:15.146Z,2.10
2023-02-11T23:58:00.717Z,0.86
